Time;durP1;ratioP1;P1;durP2;ratioP2;P2;SDS_P1;SDS_P2;PMS_P1;PMS_P2;Temp;Humidity;BMP_temperature;BMP_pressure;BME280_temperature;BME280_humidity;BME280_pressure;Samples;Min_cycle;Max_cycle;Signal;HPM_P1;HPM_P2
2022/05/02 00:01:36;;;;;;;9.80;8.80;;;8.70;99.90;;;;;;5051395;28;20213;-89
2022/05/02 00:04:03;;;;;;;10.23;8.20;;;8.70;99.90;;;;;;5045196;28;20199;-88
2022/05/02 00:06:32;;;;;;;10.13;8.87;;;8.60;99.90;;;;;;5033087;28;20684;-87
2022/05/02 00:08:59;;;;;;;9.17;7.67;;;8.50;99.90;;;;;;5033324;28;20201;-86
2022/05/02 00:11:26;;;;;;;9.67;8.60;;;8.50;99.90;;;;;;5041276;28;20221;-82
2022/05/02 00:13:53;;;;;;;11.67;8.40;;;8.50;99.90;;;;;;5034408;28;20233;-85
2022/05/02 00:16:19;;;;;;;9.77;8.67;;;8.40;99.90;;;;;;5034327;28;20206;-89
2022/05/02 00:18:46;;;;;;;13.60;8.87;;;8.40;99.90;;;;;;5032857;28;20768;-84
2022/05/02 00:21:13;;;;;;;11.40;9.33;;;8.40;99.90;;;;;;5033946;28;20502;-86
2022/05/02 00:23:41;;;;;;;14.07;9.47;;;8.40;99.90;;;;;;5033131;28;20214;-83
2022/05/02 00:26:09;;;;;;;11.17;8.67;;;8.30;99.90;;;;;;5032443;28;20217;-87
2022/05/02 00:28:36;;;;;;;10.17;8.80;;;8.30;99.90;;;;;;5033671;28;20206;-84
2022/05/02 00:31:03;;;;;;;10.13;8.70;;;8.20;99.90;;;;;;5033644;28;20221;-89
2022/05/02 00:33:30;;;;;;;10.13;8.57;;;8.20;99.90;;;;;;5033734;28;20254;-90
2022/05/02 00:35:57;;;;;;;9.00;8.10;;;8.20;99.90;;;;;;5033938;28;20246;-89
2022/05/02 00:38:24;;;;;;;11.10;8.63;;;8.10;99.90;;;;;;5034223;28;20206;-90
2022/05/02 00:40:53;;;;;;;9.27;8.30;;;8.10;99.90;;;;;;5034030;28;20222;-90
2022/05/02 00:43:20;;;;;;;10.43;8.63;;;8.10;99.90;;;;;;5034521;28;20203;-90
2022/05/02 00:45:47;;;;;;;10.53;8.30;;;8.00;99.90;;;;;;5032879;28;20198;-90
2022/05/02 00:48:13;;;;;;;10.37;8.77;;;8.00;99.90;;;;;;5040821;28;20205;-88
2022/05/02 00:50:43;;;;;;;8.77;7.87;;;8.00;99.90;;;;;;5053670;28;20225;-88
2022/05/02 00:53:12;;;;;;;8.83;7.93;;;8.00;99.90;;;;;;5052356;28;20206;-84
2022/05/02 00:55:40;;;;;;;10.47;9.07;;;7.90;99.90;;;;;;5040700;28;20199;-89
2022/05/02 00:58:09;;;;;;;10.87;8.90;;;7.90;99.90;;;;;;5033448;28;20226;-86
2022/05/02 01:00:38;;;;;;;10.53;8.70;;;7.80;99.90;;;;;;5032199;28;20242;-89
2022/05/02 01:03:07;;;;;;;11.33;9.83;;;7.80;99.90;;;;;;5032498;28;20199;-89
2022/05/02 01:07:08;;;;;;;12.50;10.00;;;7.70;99.90;;;;;;5052130;28;20609;-90
2022/05/02 01:08:26;;;;;;;12.47;9.03;;;7.70;99.90;;;;;;5053080;28;20213;-91
2022/05/02 01:10:54;;;;;;;11.23;9.10;;;7.70;99.90;;;;;;5044708;28;20202;-90
2022/05/02 01:13:34;;;;;;;9.77;8.67;;;7.60;99.90;;;;;;5033359;28;20199;-90
2022/05/02 01:16:08;;;;;;;10.87;9.33;;;7.50;99.90;;;;;;5042286;28;20190;-90
2022/05/02 01:18:35;;;;;;;10.37;8.63;;;7.40;99.90;;;;;;5054007;28;20197;-90
2022/05/02 01:21:11;;;;;;;12.07;9.87;;;7.40;99.90;;;;;;5052796;28;20229;-91
2022/05/02 01:23:38;;;;;;;10.60;8.50;;;7.40;99.90;;;;;;5054250;28;20190;-90
2022/05/02 01:26:05;;;;;;;9.23;8.23;;;7.40;99.90;;;;;;5033780;28;20226;-90
2022/05/02 01:28:32;;;;;;;8.30;7.37;;;7.30;99.90;;;;;;5033560;28;20216;-91
2022/05/02 01:30:59;;;;;;;10.07;9.07;;;7.30;99.90;;;;;;5033117;28;20618;-90
2022/05/02 01:33:25;;;;;;;10.17;9.13;;;7.30;99.90;;;;;;5033408;28;20210;-91
2022/05/02 01:35:52;;;;;;;10.67;8.53;;;7.30;99.90;;;;;;5031378;28;20365;-88
2022/05/02 01:38:20;;;;;;;9.23;8.33;;;7.20;99.90;;;;;;5032597;28;20217;-90
2022/05/02 01:40:47;;;;;;;8.97;8.07;;;7.20;99.90;;;;;;5032273;28;20229;-90
2022/05/02 01:43:14;;;;;;;7.53;6.83;;;7.20;99.90;;;;;;5032398;28;20206;-89
2022/05/02 01:45:41;;;;;;;10.40;7.70;;;7.10;99.90;;;;;;5033770;28;20206;-90
2022/05/02 01:48:08;;;;;;;8.00;7.20;;;7.10;99.90;;;;;;5042384;28;20534;-90
2022/05/02 01:50:35;;;;;;;7.67;6.93;;;7.10;99.90;;;;;;5052941;28;20229;-90
2022/05/02 01:53:01;;;;;;;8.47;7.60;;;7.10;99.90;;;;;;5051963;28;20624;-87
2022/05/02 01:55:30;;;;;;;7.47;6.70;;;7.10;99.90;;;;;;5051979;28;20221;-88
2022/05/02 01:57:57;;;;;;;7.70;6.90;;;7.10;99.90;;;;;;5039811;28;20654;-89
2022/05/02 02:00:24;;;;;;;6.50;5.90;;;7.10;99.90;;;;;;5028964;28;20226;-89
2022/05/02 02:02:51;;;;;;;6.87;6.20;;;7.00;99.90;;;;;;5028672;28;20203;-88
2022/05/02 02:08:02;;;;;;;7.63;6.87;;;7.00;99.90;;;;;;5030144;28;20714;-85
2022/05/02 02:10:31;;;;;;;7.30;6.60;;;7.00;99.90;;;;;;5029913;28;20198;-88
2022/05/02 02:12:57;;;;;;;8.17;7.10;;;6.90;99.90;;;;;;5028987;28;20607;-87
2022/05/02 02:15:24;;;;;;;7.77;6.97;;;6.90;99.90;;;;;;5028988;28;20210;-87
2022/05/02 02:17:51;;;;;;;8.60;6.47;;;6.90;99.90;;;;;;5026569;28;20837;-83
2022/05/02 02:20:18;;;;;;;9.00;7.20;;;6.90;99.90;;;;;;5028908;28;20242;-87
2022/05/02 02:22:45;;;;;;;9.17;7.67;;;6.90;99.90;;;;;;5033840;28;20206;-88
2022/05/02 02:25:12;;;;;;;8.67;7.77;;;6.80;99.90;;;;;;5049358;28;20210;-87
2022/05/02 02:27:40;;;;;;;8.80;7.57;;;6.70;99.90;;;;;;5049235;28;20198;-83
2022/05/02 02:30:08;;;;;;;8.87;7.70;;;6.70;99.90;;;;;;5047497;28;20946;-87
2022/05/02 02:32:35;;;;;;;9.17;7.53;;;6.60;99.90;;;;;;5047068;28;20210;-90
2022/05/02 02:35:02;;;;;;;8.93;7.47;;;6.60;99.90;;;;;;5049632;28;20352;-88
2022/05/02 02:37:29;;;;;;;7.67;6.73;;;6.60;99.90;;;;;;5048911;28;20209;-88
2022/05/02 02:39:56;;;;;;;8.20;7.37;;;6.50;99.90;;;;;;5049051;28;20229;-89
2022/05/02 02:42:24;;;;;;;9.00;8.10;;;6.50;99.90;;;;;;5030865;28;20203;-89
2022/05/02 02:44:53;;;;;;;10.03;9.00;;;6.50;99.90;;;;;;5030417;28;20198;-85
2022/05/02 02:47:19;;;;;;;10.13;9.03;;;6.50;99.90;;;;;;5028909;28;20497;-84
2022/05/02 02:49:46;;;;;;;10.20;9.10;;;6.50;99.90;;;;;;5029288;28;20226;-89
2022/05/02 02:52:13;;;;;;;9.13;8.20;;;6.40;99.90;;;;;;5038571;28;20206;-87
2022/05/02 02:54:41;;;;;;;11.33;8.37;;;6.40;99.90;;;;;;5050902;28;20209;-89
2022/05/02 02:57:08;;;;;;;9.70;8.33;;;6.40;99.90;;;;;;5034279;28;20217;-89
2022/05/02 02:59:34;;;;;;;9.30;7.93;;;6.40;99.90;;;;;;5031785;28;20202;-88
2022/05/02 03:02:03;;;;;;;8.50;7.40;;;6.30;99.90;;;;;;5031499;28;20246;-88
2022/05/02 03:07:14;;;;;;;8.37;7.20;;;6.30;99.90;;;;;;5031936;28;20190;-89
2022/05/02 03:09:41;;;;;;;8.93;7.37;;;6.30;99.90;;;;;;5032257;28;20214;-89
2022/05/02 03:12:09;;;;;;;8.33;7.43;;;6.30;99.90;;;;;;5032269;28;20290;-89
2022/05/02 03:14:36;;;;;;;8.30;7.40;;;6.30;99.90;;;;;;5032220;28;20210;-90
2022/05/02 03:17:06;;;;;;;8.83;7.87;;;6.30;99.90;;;;;;5031992;28;20206;-89
2022/05/02 03:19:33;;;;;;;9.87;7.60;;;6.30;99.90;;;;;;5032528;28;20210;-85
2022/05/02 03:22:00;;;;;;;7.63;6.77;;;6.30;99.90;;;;;;5031532;28;20225;-88
2022/05/02 03:24:26;;;;;;;8.67;7.43;;;6.20;99.90;;;;;;5033118;28;20221;-89
2022/05/02 03:26:54;;;;;;;8.97;7.90;;;6.20;99.90;;;;;;5038251;28;20209;-89
2022/05/02 03:29:21;;;;;;;11.00;8.60;;;6.20;99.90;;;;;;5032468;28;20217;-90
2022/05/02 03:31:48;;;;;;;10.07;7.47;;;6.20;99.90;;;;;;5032624;28;20260;-89
2022/05/02 03:34:16;;;;;;;8.83;7.83;;;6.20;99.90;;;;;;5031706;28;20209;-90
2022/05/02 03:36:43;;;;;;;8.20;7.40;;;6.20;99.90;;;;;;5032345;28;20238;-88
2022/05/02 03:39:10;;;;;;;8.47;7.57;;;6.20;99.90;;;;;;5032100;28;20207;-89
2022/05/02 03:41:37;;;;;;;9.47;7.57;;;6.20;99.90;;;;;;5032684;28;20238;-89
2022/05/02 03:44:04;;;;;;;8.37;7.47;;;6.10;99.90;;;;;;5032355;28;20202;-89
2022/05/02 03:46:31;;;;;;;7.73;7.00;;;6.10;99.90;;;;;;5046964;28;20218;-89
2022/05/02 03:49:00;;;;;;;8.60;7.70;;;6.10;99.90;;;;;;5049654;28;20218;-88
2022/05/02 03:51:28;;;;;;;10.67;7.97;;;6.10;99.90;;;;;;5037523;28;20686;-87
2022/05/02 03:53:55;;;;;;;8.73;7.73;;;6.00;99.90;;;;;;5029425;28;20195;-88
2022/05/02 03:56:22;;;;;;;8.87;7.97;;;6.00;99.90;;;;;;5028591;28;20217;-88
2022/05/02 03:58:49;;;;;;;10.80;8.03;;;6.00;99.90;;;;;;5028500;28;20206;-87
2022/05/02 04:01:16;;;;;;;11.97;10.50;;;6.00;99.90;;;;;;5029102;28;20226;-88
2022/05/02 04:03:42;;;;;;;13.00;11.03;;;6.00;99.90;;;;;;5031542;28;20576;-88
2022/05/02 04:06:09;;;;;;;14.47;10.53;;;6.00;99.90;;;;;;5032183;28;20210;-87
2022/05/02 04:08:37;;;;;;;11.80;9.80;;;6.00;99.90;;;;;;5043643;28;20206;-83
2022/05/02 04:11:04;;;;;;;13.60;10.47;;;6.00;99.90;;;;;;5050843;28;20205;-85
2022/05/02 04:13:31;;;;;;;12.53;10.67;;;5.90;99.90;;;;;;5047654;28;20211;-86
2022/05/02 04:15:58;;;;;;;10.30;9.20;;;5.90;99.90;;;;;;5064459;23;20247;-87
2022/05/02 04:18:25;;;;;;;12.37;10.23;;;5.90;99.90;;;;;;5072157;28;20297;-85
2022/05/02 04:20:52;;;;;;;10.80;8.97;;;5.90;99.90;;;;;;5053172;28;20501;-82
2022/05/02 04:23:19;;;;;;;10.90;9.37;;;5.90;99.90;;;;;;5053657;28;20202;-85
2022/05/02 04:25:47;;;;;;;10.33;8.50;;;5.90;99.90;;;;;;5056251;28;20217;-88
2022/05/02 04:28:14;;;;;;;9.80;8.57;;;5.90;99.90;;;;;;5054452;28;20213;-89
2022/05/02 04:30:41;;;;;;;12.30;9.73;;;5.90;99.90;;;;;;5054501;28;20198;-89
2022/05/02 04:33:07;;;;;;;11.60;10.07;;;6.00;99.90;;;;;;5054080;28;20213;-88
2022/05/02 04:35:34;;;;;;;11.63;9.73;;;5.90;99.90;;;;;;5052394;28;20198;-88
2022/05/02 04:38:01;;;;;;;11.20;9.03;;;6.00;99.90;;;;;;5050785;28;20206;-87
2022/05/02 04:40:30;;;;;;;10.03;8.60;;;6.00;99.90;;;;;;5050181;28;20302;-88
2022/05/02 04:42:58;;;;;;;9.83;8.53;;;6.10;99.90;;;;;;5049548;28;20213;-88
2022/05/02 04:45:25;;;;;;;11.63;9.33;;;6.10;99.90;;;;;;5049548;28;20582;-87
2022/05/02 04:47:52;;;;;;;9.87;8.37;;;6.10;99.90;;;;;;5049371;28;20280;-90
2022/05/02 04:50:19;;;;;;;10.63;8.13;;;6.10;99.90;;;;;;5049153;28;20238;-89
2022/05/02 04:52:46;;;;;;;9.33;8.33;;;6.10;99.90;;;;;;5049551;28;20197;-89
2022/05/02 04:55:13;;;;;;;10.30;9.30;;;6.20;99.90;;;;;;5050082;28;20194;-87
2022/05/02 04:57:40;;;;;;;9.80;8.70;;;6.20;99.90;;;;;;5050241;28;20210;-87
2022/05/02 05:00:09;;;;;;;9.90;8.43;;;6.20;99.90;;;;;;5052036;28;20206;-85
2022/05/02 05:02:36;;;;;;;12.00;10.20;;;6.20;99.90;;;;;;5053013;28;20515;-89
2022/05/02 05:05:03;;;;;;;11.10;9.90;;;6.30;99.90;;;;;;5052366;28;20541;-89
2022/05/02 05:07:30;;;;;;;13.37;10.67;;;6.30;99.90;;;;;;5051980;28;20217;-88
2022/05/02 05:09:57;;;;;;;13.17;10.63;;;6.40;99.90;;;;;;5052496;28;20197;-85
2022/05/02 05:12:34;;;;;;;13.33;11.30;;;6.50;99.90;;;;;;5064655;28;20208;-89
2022/05/02 05:18:17;;;;;;;11.20;9.67;;;6.60;99.90;;;;;;5073563;28;20894;-87
2022/05/02 05:20:54;;;;;;;11.73;9.93;;;6.70;99.90;;;;;;5071705;28;20244;-87
2022/05/02 05:23:40;;;;;;;14.40;11.30;;;6.70;99.90;;;;;;5069355;28;20201;-85
2022/05/02 05:26:14;;;;;;;16.73;11.63;;;6.90;99.90;;;;;;5069126;28;20201;-83
2022/05/02 05:29:10;;;;;;;15.20;10.63;;;7.00;99.90;;;;;;5070634;28;20196;-85
2022/05/02 05:31:52;;;;;;;13.43;11.37;;;7.10;99.90;;;;;;5051667;28;20198;-85
2022/05/02 05:34:32;;;;;;;13.37;10.83;;;7.20;99.90;;;;;;5051025;28;20267;-85
2022/05/02 05:37:42;;;;;;;14.80;11.13;;;7.30;99.90;;;;;;5051987;28;20205;-83
2022/05/02 05:40:16;;;;;;;13.60;10.90;;;7.40;99.90;;;;;;5052541;28;20298;-85
2022/05/02 05:43:06;;;;;;;15.13;11.43;;;7.60;99.90;;;;;;5051351;28;20272;-86
2022/05/02 05:45:43;;;;;;;13.33;11.07;;;7.70;99.90;;;;;;5042938;28;20294;-83
2022/05/02 05:48:21;;;;;;;16.10;11.87;;;7.80;99.90;;;;;;5050648;28;20212;-83
2022/05/02 05:50:52;;;;;;;12.97;11.17;;;7.80;99.90;;;;;;5052484;28;20221;-86
2022/05/02 05:53:29;;;;;;;13.13;11.23;;;7.90;99.90;;;;;;5051845;28;20589;-86
2022/05/02 05:56:34;;;;;;;14.47;11.70;;;8.10;99.90;;;;;;5053537;28;20197;-83
2022/05/02 05:59:07;;;;;;;15.43;12.03;;;8.30;99.90;;;;;;5071965;28;20215;-85
2022/05/02 06:01:54;;;;;;;15.03;12.23;;;8.50;99.90;;;;;;5072671;28;20263;-85
2022/05/02 06:04:24;;;;;;;14.00;12.13;;;8.70;99.90;;;;;;5071878;28;20193;-86
2022/05/02 06:06:51;;;;;;;15.47;12.17;;;9.00;99.90;;;;;;5059320;28;20202;-85
2022/05/02 06:09:20;;;;;;;13.97;11.33;;;9.40;99.90;;;;;;5050520;28;20212;-86
2022/05/02 06:11:48;;;;;;;12.93;11.63;;;9.70;99.90;;;;;;5050840;28;20209;-86
2022/05/02 06:14:16;;;;;;;15.27;12.57;;;10.10;99.90;;;;;;5052984;28;20238;-87
2022/05/02 06:19:34;;;;;;;13.03;11.37;;;10.90;99.90;;;;;;5052469;28;20899;-86
2022/05/02 06:22:04;;;;;;;12.13;10.07;;;11.30;99.90;;;;;;5052289;28;20240;-85
2022/05/02 06:24:33;;;;;;;14.03;10.97;;;11.50;99.90;;;;;;5053091;28;20255;-87
2022/05/02 06:27:03;;;;;;;13.00;10.27;;;11.70;99.90;;;;;;5051928;28;20206;-86
2022/05/02 06:29:30;;;;;;;11.77;9.43;;;12.10;99.90;;;;;;5052947;28;20759;-86
2022/05/02 06:31:59;;;;;;;11.27;9.20;;;12.30;99.90;;;;;;5051910;28;20523;-88
2022/05/02 06:34:35;;;;;;;12.47;9.33;;;12.60;99.90;;;;;;5030816;28;20205;-87
2022/05/02 06:37:26;;;;;;;11.00;8.70;;;12.90;99.90;;;;;;5053149;28;20214;-86
2022/05/02 06:40:05;;;;;;;10.63;8.40;;;13.10;99.90;;;;;;5052956;28;20209;-88
2022/05/02 06:42:38;;;;;;;10.70;8.90;;;13.40;99.90;;;;;;5058731;28;20205;-89
2022/05/02 06:45:22;;;;;;;9.87;8.70;;;13.40;99.90;;;;;;5068149;28;20208;-88
2022/05/02 06:48:24;;;;;;;10.50;8.87;;;13.70;99.90;;;;;;5069038;28;20216;-89
2022/05/02 06:50:57;;;;;;;9.27;8.37;;;13.90;99.90;;;;;;5069892;28;20205;-88
2022/05/02 06:54:08;;;;;;;10.60;8.30;;;14.10;99.90;;;;;;5067010;28;20615;-87
2022/05/02 06:56:42;;;;;;;8.90;8.00;;;14.40;99.90;;;;;;5073781;23;20240;-86
2022/05/02 06:59:23;;;;;;;9.80;8.80;;;14.90;99.90;;;;;;5068863;28;20213;-86
2022/05/02 07:01:53;;;;;;;9.93;8.03;;;15.20;99.90;;;;;;5069189;28;20319;-86
2022/05/02 07:04:35;;;;;;;9.07;7.35;;;15.50;99.90;;;;;;5051602;28;20209;-87
2022/05/02 07:07:14;;;;;;;9.27;8.23;;;15.60;99.90;;;;;;5051242;28;20201;-86
2022/05/02 07:09:44;;;;;;;8.57;7.70;;;15.60;99.90;;;;;;5051546;28;20501;-83
2022/05/02 07:12:17;;;;;;;8.13;7.32;;;15.60;99.90;;;;;;5051388;28;20273;-85
2022/05/02 07:14:55;;;;;;;10.32;8.52;;;15.90;99.90;;;;;;5050732;28;20809;-85
2022/05/02 07:17:33;;;;;;;8.85;7.80;;;16.00;99.90;;;;;;5050872;28;20648;-86
2022/05/02 07:20:04;;;;;;;8.50;7.30;;;16.20;99.90;;;;;;5050356;28;20288;-85
2022/05/02 07:22:36;;;;;;;8.45;7.35;;;16.30;99.90;;;;;;5050349;28;20228;-86
2022/05/02 07:25:09;;;;;;;10.55;7.43;;;16.70;99.90;;;;;;5051205;28;20197;-88
2022/05/02 07:28:08;;;;;;;8.55;7.15;;;16.70;99.90;;;;;;5062281;28;20647;-85
2022/05/02 07:30:36;;;;;;;9.00;7.55;;;16.90;99.90;;;;;;5051096;28;20212;-85
2022/05/02 07:33:04;;;;;;;8.20;7.30;;;17.20;99.90;;;;;;5070848;28;20197;-86
2022/05/02 07:35:31;;;;;;;8.43;7.57;;;17.30;99.90;;;;;;5063816;28;20201;-88
2022/05/02 07:38:00;;;;;;;8.45;7.60;;;17.50;99.90;;;;;;5051229;28;20197;-87
2022/05/02 07:40:27;;;;;;;7.72;6.93;;;17.50;99.90;;;;;;5054431;28;20206;-87
2022/05/02 07:42:57;;;;;;;7.82;7.10;;;17.60;99.90;;;;;;5073958;28;20229;-87
2022/05/02 07:45:28;;;;;;;7.15;6.45;;;17.70;99.90;;;;;;5069640;28;20508;-87
2022/05/02 07:47:58;;;;;;;7.20;6.50;;;17.50;99.90;;;;;;5055721;28;20197;-88
2022/05/02 07:50:27;;;;;;;7.70;6.90;;;17.40;99.90;;;;;;5055768;28;20233;-88
2022/05/02 07:52:55;;;;;;;8.00;7.15;;;17.70;99.90;;;;;;5054930;28;20251;-88
2022/05/02 07:55:24;;;;;;;8.52;7.70;;;17.60;99.90;;;;;;5053970;28;20244;-88
2022/05/02 07:57:52;;;;;;;8.13;7.22;;;17.80;99.90;;;;;;5055034;28;20216;-85
2022/05/02 08:00:20;;;;;;;8.10;6.97;;;17.90;99.90;;;;;;5067119;28;20224;-85
2022/05/02 08:02:47;;;;;;;6.43;5.63;;;18.00;99.90;;;;;;5074598;28;20231;-85
2022/05/02 08:05:21;;;;;;;8.43;6.82;;;17.60;99.90;;;;;;5056289;28;20214;-87
2022/05/02 08:07:51;;;;;;;7.70;6.13;;;17.90;99.90;;;;;;5054463;28;20252;-88
2022/05/02 08:10:42;;;;;;;7.03;6.22;;;18.10;99.90;;;;;;5054090;28;20772;-88
2022/05/02 08:13:25;;;;;;;6.93;5.72;;;18.10;99.90;;;;;;5053861;28;20194;-88
2022/05/02 08:15:59;;;;;;;7.57;6.00;;;18.30;99.90;;;;;;5054265;28;20244;-88
2022/05/02 08:18:59;;;;;;;5.95;5.30;;;18.40;99.90;;;;;;5053833;28;20570;-85
2022/05/02 08:21:33;;;;;;;7.18;6.05;;;18.60;99.90;;;;;;5052957;28;20292;-86
2022/05/02 08:27:27;;;;;;;9.00;5.75;;;19.20;99.90;;;;;;5058480;28;20201;-87
2022/05/02 08:30:10;;;;;;;6.78;6.07;;;19.70;99.90;;;;;;5073268;28;20200;-87
2022/05/02 08:32:49;;;;;;;7.07;4.78;;;19.90;99.90;;;;;;5070782;28;20197;-86
2022/05/02 08:35:19;;;;;;;7.07;4.93;;;19.90;99.90;;;;;;5070009;28;20197;-86
2022/05/02 08:38:21;;;;;;;5.53;4.93;;;20.20;99.90;;;;;;5053540;28;20194;-85
2022/05/02 08:41:11;;;;;;;6.53;4.30;;;20.30;99.90;;;;;;5027823;28;20217;-85
2022/05/02 08:44:09;;;;;;;7.13;5.60;;;19.90;99.90;;;;;;5073140;28;20672;-84
2022/05/02 08:46:59;;;;;;;6.30;5.72;;;19.80;99.90;;;;;;5073121;28;20296;-86
2022/05/02 08:50:02;;;;;;;5.47;4.97;;;19.60;99.90;;;;;;5073192;28;20213;-84
2022/05/02 08:52:59;;;;;;;5.50;5.00;;;19.60;99.90;;;;;;5072540;28;20608;-84
2022/05/02 08:56:02;;;;;;;6.82;4.80;;;19.90;99.90;;;;;;5072715;28;20534;-88
2022/05/02 08:59:02;;;;;;;5.32;4.82;;;19.90;99.90;;;;;;5038148;28;20295;-84
2022/05/02 09:01:47;;;;;;;5.93;4.10;;;19.80;99.90;;;;;;5072728;28;20782;-87
2022/05/02 09:04:54;;;;;;;5.57;4.97;;;19.70;99.90;;;;;;5058419;28;20214;-86
2022/05/02 09:08:06;;;;;;;6.40;5.03;;;19.70;99.90;;;;;;5054438;28;20201;-84
2022/05/02 09:10:55;;;;;;;6.05;4.70;;;19.60;99.90;;;;;;5072933;28;20581;-85
2022/05/02 09:13:54;;;;;;;4.85;4.40;;;19.20;99.90;;;;;;5072087;28;20256;-83
2022/05/02 09:17:01;;;;;;;5.40;4.68;;;19.50;99.90;;;;;;5058828;28;20205;-85
2022/05/02 09:19:49;;;;;;;5.82;4.90;;;20.10;99.90;;;;;;5049742;28;20209;-87
2022/05/02 09:22:49;;;;;;;5.38;4.88;;;20.10;99.90;;;;;;5052845;28;20206;-86
2022/05/02 09:25:33;;;;;;;6.32;5.18;;;20.10;99.90;;;;;;5048234;28;20206;-86
2022/05/02 09:28:09;;;;;;;5.68;5.15;;;20.00;99.90;;;;;;5052498;28;20236;-85
2022/05/02 09:31:02;;;;;;;3.63;3.20;;;19.70;99.90;;;;;;5051845;28;20213;-84
2022/05/02 09:33:36;;;;;;;3.67;3.20;;;19.90;99.90;;;;;;5052964;28;20209;-86
2022/05/02 09:36:35;;;;;;;4.82;4.25;;;19.80;99.90;;;;;;5052105;28;20206;-83
2022/05/02 09:39:14;;;;;;;4.75;4.35;;;19.50;99.90;;;;;;5047991;28;20218;-84
2022/05/02 09:42:19;;;;;;;5.03;4.53;;;19.80;99.90;;;;;;5052962;28;20194;-85
2022/05/02 09:51:39;;;;;;;5.07;4.53;;;20.00;99.90;;;;;;5051669;28;20549;-85
2022/05/02 09:56:37;;;;;;;8.02;5.22;;;19.90;99.90;;;;;;5067480;28;20212;-87
2022/05/02 09:57:15;;;;;;;4.88;4.20;;;19.80;99.90;;;;;;5072260;28;20236;-87
2022/05/02 09:59:47;;;;;;;5.53;4.47;;;19.60;99.90;;;;;;5070660;28;20211;-83
2022/05/02 10:02:20;;;;;;;6.20;3.92;;;19.80;99.90;;;;;;5059972;28;20528;-86
2022/05/02 10:04:55;;;;;;;5.93;4.53;;;19.90;99.90;;;;;;5049964;28;20248;-90
2022/05/02 10:07:25;;;;;;;6.22;5.63;;;19.90;99.90;;;;;;5049580;28;20237;-86
2022/05/02 10:10:04;;;;;;;5.72;5.13;;;20.00;99.90;;;;;;5051229;28;20217;-86
2022/05/02 10:12:49;;;;;;;8.55;5.07;;;20.00;99.90;;;;;;5058211;28;20198;-86
2022/05/02 10:15:39;;;;;;;6.68;5.22;;;20.40;99.90;;;;;;5051523;28;20526;-84
2022/05/02 10:18:42;;;;;;;6.28;5.03;;;20.40;99.90;;;;;;5051143;28;20204;-83
2022/05/02 10:21:24;;;;;;;6.18;5.57;;;20.70;99.90;;;;;;5049758;28;20198;-87
2022/05/02 10:24:21;;;;;;;7.47;5.10;;;20.60;99.90;;;;;;5050435;28;20216;-84
2022/05/02 10:26:53;;;;;;;7.80;6.10;;;20.50;99.90;;;;;;5031203;28;20206;-88
2022/05/02 10:29:40;;;;;;;6.38;5.75;;;20.20;99.90;;;;;;5053122;28;20221;-93
2022/05/02 10:32:22;;;;;;;6.95;5.32;;;20.40;99.90;;;;;;5053448;28;20209;-93
2022/05/02 10:34:53;;;;;;;5.57;4.80;;;20.60;99.90;;;;;;5053788;28;20190;-93
2022/05/02 10:37:28;;;;;;;5.97;5.15;;;20.70;99.90;;;;;;5054156;28;20834;-85
2022/05/02 10:40:07;;;;;;;6.90;5.97;;;20.90;99.90;;;;;;5035663;28;20288;-93
2022/05/02 10:42:35;;;;;;;6.47;5.53;;;20.80;99.90;;;;;;5052499;28;20249;-93
2022/05/02 10:45:06;;;;;;;7.07;5.40;;;20.70;99.90;;;;;;5051788;28;20240;-89
2022/05/02 10:47:41;;;;;;;6.45;5.93;;;20.70;99.90;;;;;;5052567;28;20205;-87
2022/05/02 10:50:17;;;;;;;5.82;5.07;;;20.90;99.90;;;;;;5055345;28;20217;-89
2022/05/02 10:53:31;;;;;;;6.38;5.85;;;20.60;99.90;;;;;;5072502;28;20270;-90
2022/05/02 10:56:19;;;;;;;7.10;6.40;;;20.60;99.90;;;;;;5047008;28;20237;-91
2022/05/02 10:58:47;;;;;;;5.75;5.25;;;20.90;99.90;;;;;;5059629;28;20214;-91
2022/05/02 11:01:40;;;;;;;6.93;5.15;;;21.00;99.90;;;;;;5051230;28;20606;-88
2022/05/02 11:04:21;;;;;;;6.15;5.53;;;21.20;99.90;;;;;;5052131;28;20308;-91
2022/05/02 11:07:00;;;;;;;6.18;5.15;;;21.50;99.90;;;;;;5050861;28;20578;-90
2022/05/02 11:09:36;;;;;;;6.60;5.03;;;21.60;99.90;;;;;;5051368;28;20281;-89
2022/05/02 11:12:07;;;;;;;8.25;5.78;;;21.20;99.90;;;;;;5051125;28;20208;-92
2022/05/02 11:14:44;;;;;;;4.82;4.43;;;20.80;99.90;;;;;;5050448;28;20202;-90
2022/05/02 11:17:22;;;;;;;5.25;4.53;;;20.60;99.90;;;;;;5068045;28;20593;-87
2022/05/02 11:22:57;;;;;;;7.30;3.97;;;20.70;99.90;;;;;;5051214;28;20368;-84
2022/05/02 11:25:34;;;;;;;5.75;3.92;;;20.80;99.90;;;;;;5051234;28;20209;-88
2022/05/02 11:28:17;;;;;;;4.93;4.38;;;21.00;99.90;;;;;;5064114;28;20232;-84
2022/05/02 11:30:56;;;;;;;5.25;3.80;;;20.80;99.90;;;;;;5069893;28;20295;-84
2022/05/02 11:33:31;;;;;;;4.75;3.88;;;21.10;99.90;;;;;;5070466;28;20185;-90
2022/05/02 11:36:02;;;;;;;5.03;3.80;;;21.00;99.90;;;;;;5062173;28;20197;-88
2022/05/02 11:38:33;;;;;;;3.83;3.47;;;21.20;99.90;;;;;;5050751;28;20229;-85
2022/05/02 11:41:08;;;;;;;4.65;4.07;;;21.40;99.90;;;;;;5047846;28;20241;-91
2022/05/02 11:43:37;;;;;;;6.03;4.00;;;21.40;99.90;;;;;;5046840;28;20217;-83
2022/05/02 11:46:17;;;;;;;3.33;3.03;;;21.40;99.90;;;;;;5048745;28;20260;-89
2022/05/02 11:49:12;;;;;;;3.92;3.10;;;21.30;99.90;;;;;;5048899;28;20225;-88
2022/05/02 11:51:44;;;;;;;6.47;3.83;;;21.20;99.90;;;;;;5049598;28;20209;-86
2022/05/02 11:54:29;;;;;;;3.53;2.70;;;21.00;99.90;;;;;;5049580;28;20255;-91
2022/05/02 11:57:04;;;;;;;4.22;3.60;;;21.10;99.90;;;;;;5045440;28;20667;-81
2022/05/02 11:59:43;;;;;;;4.25;3.13;;;21.10;99.90;;;;;;5048493;28;20210;-84
2022/05/02 12:02:31;;;;;;;4.47;3.70;;;21.00;99.90;;;;;;5048142;28;20601;-83
2022/05/02 12:05:02;;;;;;;3.40;3.05;;;20.50;99.90;;;;;;5047756;28;20198;-86
2022/05/02 12:07:32;;;;;;;5.40;3.72;;;20.30;99.90;;;;;;5048040;28;20220;-84
2022/05/02 12:10:04;;;;;;;4.13;2.88;;;20.40;99.90;;;;;;5047194;28;20281;-84
2022/05/02 12:12:32;;;;;;;3.30;2.78;;;20.40;99.90;;;;;;5046242;28;20202;-84
2022/05/02 12:15:08;;;;;;;4.60;2.92;;;20.50;99.90;;;;;;5047101;28;20213;-83
2022/05/02 12:17:52;;;;;;;4.20;2.47;;;20.60;99.90;;;;;;5047605;28;20241;-87
2022/05/02 12:20:27;;;;;;;4.03;2.58;;;20.60;99.90;;;;;;5047442;28;20961;-84
2022/05/02 12:22:56;;;;;;;4.63;2.60;;;20.60;99.90;;;;;;5046730;28;20297;-87
2022/05/02 12:25:24;;;;;;;3.78;3.10;;;20.70;99.90;;;;;;5048367;28;20229;-86
2022/05/02 12:27:51;;;;;;;4.90;2.72;;;21.00;99.90;;;;;;5050954;28;20571;-87
2022/05/02 12:30:20;;;;;;;3.60;2.72;;;21.00;99.90;;;;;;5050888;28;20198;-85
2022/05/02 12:32:49;;;;;;;3.88;2.60;;;20.70;99.90;;;;;;5051835;28;20205;-86
2022/05/02 12:35:20;;;;;;;4.65;3.15;;;20.90;99.90;;;;;;5050980;28;20214;-84
2022/05/02 12:37:49;;;;;;;5.65;2.70;;;21.00;99.90;;;;;;5050604;28;20624;-87
2022/05/02 12:40:18;;;;;;;4.28;2.70;;;21.10;99.90;;;;;;5050565;28;20411;-85
2022/05/02 12:42:51;;;;;;;3.58;2.47;;;21.30;99.90;;;;;;5051732;28;20904;-85
2022/05/02 12:45:21;;;;;;;4.47;2.80;;;21.60;99.90;;;;;;5050812;28;20240;-85
2022/05/02 12:47:53;;;;;;;3.50;2.47;;;21.60;99.90;;;;;;5050096;28;20237;-85
2022/05/02 12:50:22;;;;;;;4.95;2.33;;;21.40;99.90;;;;;;5050120;28;20238;-84
2022/05/02 12:52:51;;;;;;;2.80;2.17;;;21.20;99.90;;;;;;5065331;28;20279;-84
2022/05/02 12:55:20;;;;;;;2.33;1.80;;;21.00;99.90;;;;;;5070478;28;20520;-83
2022/05/02 13:00:40;;;;;;;2.97;2.35;;;20.90;99.90;;;;;;5051146;28;20193;-86
2022/05/02 13:03:19;;;;;;;5.55;2.60;;;20.80;99.90;;;;;;5054594;28;20249;-82
2022/05/02 13:05:57;;;;;;;4.32;2.70;;;20.70;99.90;;;;;;5069685;28;20612;-86
2022/05/02 13:08:34;;;;;;;3.08;2.42;;;20.30;99.90;;;;;;5057334;28;20218;-87
2022/05/02 13:11:06;;;;;;;5.22;2.50;;;20.00;99.90;;;;;;5050625;28;20671;-86
2022/05/02 13:13:45;;;;;;;3.92;2.60;;;20.20;99.90;;;;;;5051485;28;20212;-86
2022/05/02 13:16:24;;;;;;;3.35;2.25;;;20.30;99.90;;;;;;5047660;28;20219;-87
2022/05/02 13:18:51;;;;;;;2.47;2.28;;;20.40;99.90;;;;;;5056852;28;20209;-87
2022/05/02 13:21:19;;;;;;;2.70;2.50;;;20.40;99.90;;;;;;5050156;28;20786;-84
2022/05/02 13:23:47;;;;;;;4.43;2.20;;;20.40;99.90;;;;;;5049576;28;20246;-84
2022/05/02 13:26:48;;;;;;;4.15;2.42;;;20.30;99.90;;;;;;5050039;28;20209;-87
2022/05/02 13:29:29;;;;;;;3.83;2.97;;;20.20;99.90;;;;;;5024230;28;20217;-83
2022/05/02 13:32:02;;;;;;;3.45;2.88;;;19.90;99.90;;;;;;5050307;28;20300;-81
2022/05/02 13:34:42;;;;;;;4.07;2.90;;;20.00;99.90;;;;;;5049745;28;20202;-84
2022/05/02 13:37:16;;;;;;;4.35;3.35;;;20.10;99.90;;;;;;5049158;28;20213;-86
2022/05/02 13:40:03;;;;;;;3.80;2.58;;;20.10;99.90;;;;;;5050704;28;20224;-84
2022/05/02 13:42:41;;;;;;;3.53;2.38;;;20.20;99.90;;;;;;5063326;28;20217;-85
2022/05/02 13:45:16;;;;;;;4.18;2.10;;;20.30;99.90;;;;;;5070404;28;20255;-87
2022/05/02 13:47:51;;;;;;;4.38;2.45;;;20.20;99.90;;;;;;5069114;28;20240;-83
2022/05/02 13:50:21;;;;;;;3.70;2.30;;;20.00;99.90;;;;;;5068783;28;20897;-84
2022/05/02 13:52:52;;;;;;;2.47;2.10;;;20.00;99.90;;;;;;5068020;28;20213;-84